createdAt,value
2019-06-01T00:05:16.570Z,46.33
2019-06-01T00:15:20.164Z,46.52
2019-06-01T00:25:23.736Z,46.57
2019-06-01T00:35:27.317Z,46.55
2019-06-01T00:45:30.930Z,46.59
2019-06-01T00:55:34.551Z,46.68
2019-06-01T01:05:38.870Z,46.66
2019-06-01T01:15:42.629Z,46.66
2019-06-01T01:25:46.389Z,46.76
2019-06-01T01:35:49.969Z,46.69
2019-06-01T01:45:54.736Z,46.63
2019-06-01T01:55:59.080Z,46.53
2019-06-01T02:06:03.372Z,46.43
2019-06-01T02:16:07.035Z,46.43
2019-06-01T02:26:10.585Z,46.44
2019-06-01T02:36:14.165Z,46.31
2019-06-01T02:46:17.747Z,46.27
2019-06-01T02:56:21.324Z,46.40
2019-06-01T03:06:24.895Z,46.33
2019-06-01T03:16:29.657Z,46.44
2019-06-01T03:26:33.428Z,46.32
2019-06-01T03:36:36.995Z,46.41
2019-06-01T03:46:40.569Z,46.21
2019-06-01T03:56:44.163Z,46.06
2019-06-01T04:06:47.736Z,46.10
2019-06-01T04:16:51.289Z,45.89
2019-06-01T04:26:54.905Z,45.75
2019-06-01T04:36:58.513Z,45.64
2019-06-01T04:47:02.101Z,45.56
2019-06-01T04:57:06.765Z,45.49
2019-06-01T05:07:11.202Z,45.35
2019-06-01T05:17:16.551Z,45.07
2019-06-01T05:27:20.332Z,44.93
2019-06-01T05:37:23.918Z,44.71
2019-06-01T05:47:27.535Z,44.56
2019-06-01T05:57:31.092Z,44.38
2019-06-01T06:07:34.665Z,44.23
2019-06-01T06:17:38.271Z,44.14
2019-06-01T06:27:41.865Z,44.08
2019-06-01T06:37:45.448Z,44.11
2019-06-01T06:47:49.037Z,44.02
2019-06-01T06:57:52.632Z,43.87
2019-06-01T07:07:56.177Z,43.62
2019-06-01T07:17:59.749Z,43.41
2019-06-01T07:28:03.312Z,42.96
2019-06-01T07:38:06.927Z,42.63
2019-06-01T07:48:10.493Z,42.17
2019-06-01T07:58:14.114Z,41.89
2019-06-01T08:08:17.717Z,41.81
2019-06-01T08:18:21.934Z,41.42
2019-06-01T08:28:26.503Z,41.38
2019-06-01T08:38:31.675Z,41.28
2019-06-01T08:48:35.876Z,42.66
2019-06-01T08:58:42.387Z,42.81
2019-06-01T09:08:48.579Z,43.04
2019-06-01T09:18:55.369Z,44.44
2019-06-01T09:29:03.125Z,44.44
2019-06-01T09:39:11.474Z,44.10
2019-06-01T09:49:17.385Z,44.73
2019-06-01T09:59:22.543Z,43.92
2019-06-01T10:09:29.476Z,43.91
2019-06-01T10:19:35.185Z,44.20
2019-06-01T10:29:43.080Z,42.93
2019-06-01T10:39:51.020Z,43.73
2019-06-01T10:49:55.772Z,43.65
2019-06-01T10:59:59.876Z,43.37
2019-06-01T11:10:04.862Z,43.92
2019-06-01T11:20:08.812Z,44.22
2019-06-01T11:30:12.838Z,44.88
2019-06-01T11:40:16.532Z,45.82
2019-06-01T11:50:20.980Z,46.03
2019-06-01T12:00:24.548Z,45.47
2019-06-01T12:10:28.157Z,45.62
2019-06-01T12:20:31.705Z,45.57
2019-06-01T12:30:35.359Z,44.48
2019-06-01T12:40:39.154Z,44.37
2019-06-01T12:50:46.695Z,43.93
2019-06-01T13:00:48.363Z,43.97
2019-06-01T13:10:52.015Z,43.77
2019-06-01T13:20:56.051Z,44.11
2019-06-01T13:30:59.881Z,44.07
2019-06-01T13:41:06.023Z,44.13
2019-06-01T13:51:11.233Z,43.73
2019-06-01T14:01:15.069Z,43.71
2019-06-01T14:11:18.615Z,43.54
2019-06-01T14:21:22.299Z,43.48
2019-06-01T14:31:25.868Z,42.95
2019-06-01T14:41:29.475Z,42.90
2019-06-01T14:51:33.345Z,42.33
2019-06-01T15:01:37.001Z,41.63
2019-06-01T15:11:40.568Z,42.13
2019-06-01T15:21:44.149Z,42.52
2019-06-01T15:31:47.759Z,42.71
2019-06-01T15:41:52.890Z,42.71
2019-06-01T15:51:57.738Z,42.06
2019-06-01T16:02:01.472Z,42.12
2019-06-01T16:12:05.790Z,42.35
2019-06-01T16:22:09.329Z,42.43
2019-06-01T16:32:12.916Z,42.57
2019-06-01T16:42:16.508Z,42.78
2019-06-01T16:52:20.097Z,42.95
2019-06-01T17:02:23.700Z,42.92
2019-06-01T17:12:27.295Z,43.08
2019-06-01T17:22:30.910Z,43.27
2019-06-01T17:32:34.505Z,43.37
2019-06-01T17:42:38.602Z,43.43
2019-06-01T17:52:42.477Z,43.66
2019-06-01T18:02:46.659Z,43.83
2019-06-01T18:12:50.711Z,44.05
2019-06-01T18:22:56.608Z,44.01
2019-06-01T18:33:00.948Z,44.04
2019-06-01T18:43:12.071Z,44.00
2019-06-01T18:53:17.024Z,44.13
2019-06-01T19:03:21.072Z,44.56
2019-06-01T19:13:25.889Z,44.83
2019-06-01T19:23:30.173Z,45.06
2019-06-01T19:33:34.369Z,45.24
2019-06-01T19:43:38.758Z,45.44
2019-06-01T19:53:42.983Z,45.71
2019-06-01T20:03:47.079Z,45.52
2019-06-01T20:13:51.435Z,45.70
2019-06-01T20:23:56.175Z,45.95
2019-06-01T20:34:00.775Z,46.11
2019-06-01T20:44:06.184Z,46.54
2019-06-01T20:54:12.899Z,46.61
2019-06-01T21:04:18.035Z,46.55
2019-06-01T21:14:21.759Z,46.73
2019-06-01T21:24:25.500Z,48.07
2019-06-01T21:34:29.055Z,47.98
2019-06-01T21:44:32.693Z,47.88
2019-06-01T21:54:36.337Z,48.40
2019-06-01T22:04:39.919Z,49.09
2019-06-01T22:14:43.869Z,49.44
2019-06-01T22:24:47.687Z,49.20
2019-06-01T22:34:51.379Z,48.91
2019-06-01T22:44:55.348Z,48.80
2019-06-01T22:54:58.976Z,48.76
2019-06-01T23:05:02.632Z,48.76
2019-06-01T23:15:07.325Z,48.70
2019-06-01T23:25:10.915Z,48.82
2019-06-01T23:35:14.540Z,48.78
2019-06-01T23:45:18.089Z,48.77
2019-06-01T23:55:21.667Z,48.70
